sensor_id;sensor_type;location;lat;lon;timestamp;P1;durP1;ratioP1;P2;durP2;ratioP2
21168;SDS011;10742;51.816;8.662;2022-12-28T00:00:28;16.53;;;4.27;;
21168;SDS011;10742;51.816;8.662;2022-12-28T00:03:50;12.90;;;3.70;;
21168;SDS011;10742;51.816;8.662;2022-12-28T00:07:12;21.50;;;6.00;;
21168;SDS011;10742;51.816;8.662;2022-12-28T00:10:15;11.37;;;4.07;;
21168;SDS011;10742;51.816;8.662;2022-12-28T00:13:17;9.30;;;2.50;;
21168;SDS011;10742;51.816;8.662;2022-12-28T00:16:23;17.33;;;4.30;;
21168;SDS011;10742;51.816;8.662;2022-12-28T00:19:26;12.00;;;4.00;;
21168;SDS011;10742;51.816;8.662;2022-12-28T00:22:28;8.17;;;2.43;;
21168;SDS011;10742;51.816;8.662;2022-12-28T00:25:33;9.67;;;2.20;;
21168;SDS011;10742;51.816;8.662;2022-12-28T00:28:36;6.53;;;2.37;;
21168;SDS011;10742;51.816;8.662;2022-12-28T00:31:39;4.63;;;1.57;;
21168;SDS011;10742;51.816;8.662;2022-12-28T00:34:42;7.67;;;2.20;;
21168;SDS011;10742;51.816;8.662;2022-12-28T00:37:45;9.57;;;1.90;;
21168;SDS011;10742;51.816;8.662;2022-12-28T00:40:47;4.07;;;1.63;;
21168;SDS011;10742;51.816;8.662;2022-12-28T00:43:49;5.97;;;1.70;;
21168;SDS011;10742;51.816;8.662;2022-12-28T00:46:52;5.93;;;1.80;;
21168;SDS011;10742;51.816;8.662;2022-12-28T00:49:55;5.67;;;1.60;;
21168;SDS011;10742;51.816;8.662;2022-12-28T00:52:58;4.97;;;1.47;;
21168;SDS011;10742;51.816;8.662;2022-12-28T00:56:07;5.73;;;1.90;;
21168;SDS011;10742;51.816;8.662;2022-12-28T00:59:12;8.03;;;1.80;;
21168;SDS011;10742;51.816;8.662;2022-12-28T01:02:14;6.67;;;1.80;;
21168;SDS011;10742;51.816;8.662;2022-12-28T01:05:17;4.73;;;1.47;;
21168;SDS011;10742;51.816;8.662;2022-12-28T01:08:19;2.53;;;1.27;;
21168;SDS011;10742;51.816;8.662;2022-12-28T01:11:24;8.83;;;1.70;;
21168;SDS011;10742;51.816;8.662;2022-12-28T01:14:29;6.30;;;1.33;;
21168;SDS011;10742;51.816;8.662;2022-12-28T01:17:50;4.77;;;1.37;;
21168;SDS011;10742;51.816;8.662;2022-12-28T01:21:14;3.67;;;1.43;;
21168;SDS011;10742;51.816;8.662;2022-12-28T01:24:36;8.97;;;1.63;;
21168;SDS011;10742;51.816;8.662;2022-12-28T01:27:58;7.73;;;1.80;;
21168;SDS011;10742;51.816;8.662;2022-12-28T01:31:20;8.13;;;2.00;;
21168;SDS011;10742;51.816;8.662;2022-12-28T01:34:43;5.13;;;1.50;;
21168;SDS011;10742;51.816;8.662;2022-12-28T01:38:05;5.67;;;1.37;;
21168;SDS011;10742;51.816;8.662;2022-12-28T01:41:27;4.40;;;1.40;;
21168;SDS011;10742;51.816;8.662;2022-12-28T01:44:49;6.53;;;1.47;;
21168;SDS011;10742;51.816;8.662;2022-12-28T01:48:19;6.00;;;1.57;;
21168;SDS011;10742;51.816;8.662;2022-12-28T01:52:19;5.93;;;1.60;;
21168;SDS011;10742;51.816;8.662;2022-12-28T01:55:35;2.83;;;1.50;;
21168;SDS011;10742;51.816;8.662;2022-12-28T01:59:00;3.70;;;1.33;;
21168;SDS011;10742;51.816;8.662;2022-12-28T02:02:22;5.40;;;1.93;;
21168;SDS011;10742;51.816;8.662;2022-12-28T02:05:47;5.40;;;2.20;;
21168;SDS011;10742;51.816;8.662;2022-12-28T02:09:17;5.43;;;1.90;;
21168;SDS011;10742;51.816;8.662;2022-12-28T02:12:41;6.03;;;1.87;;
21168;SDS011;10742;51.816;8.662;2022-12-28T02:16:05;5.43;;;1.60;;
21168;SDS011;10742;51.816;8.662;2022-12-28T02:30:30;4.63;;;1.70;;
21168;SDS011;10742;51.816;8.662;2022-12-28T02:33:57;6.60;;;1.60;;
21168;SDS011;10742;51.816;8.662;2022-12-28T02:37:50;8.00;;;1.90;;
21168;SDS011;10742;51.816;8.662;2022-12-28T02:41:23;4.27;;;1.57;;
21168;SDS011;10742;51.816;8.662;2022-12-28T02:44:46;6.40;;;1.70;;
21168;SDS011;10742;51.816;8.662;2022-12-28T02:48:27;5.60;;;1.57;;
21168;SDS011;10742;51.816;8.662;2022-12-28T02:56:00;4.97;;;1.70;;
21168;SDS011;10742;51.816;8.662;2022-12-28T02:59:35;2.17;;;1.40;;
21168;SDS011;10742;51.816;8.662;2022-12-28T03:07:49;6.37;;;1.90;;
21168;SDS011;10742;51.816;8.662;2022-12-28T03:15:18;4.57;;;2.00;;
21168;SDS011;10742;51.816;8.662;2022-12-28T03:18:55;8.87;;;2.20;;
21168;SDS011;10742;51.816;8.662;2022-12-28T03:22:40;4.43;;;1.40;;
21168;SDS011;10742;51.816;8.662;2022-12-28T03:26:22;5.33;;;1.77;;
21168;SDS011;10742;51.816;8.662;2022-12-28T03:30:06;3.30;;;1.70;;
21168;SDS011;10742;51.816;8.662;2022-12-28T03:33:51;5.33;;;2.10;;
21168;SDS011;10742;51.816;8.662;2022-12-28T03:37:35;4.60;;;1.83;;
21168;SDS011;10742;51.816;8.662;2022-12-28T03:41:08;6.50;;;1.70;;
21168;SDS011;10742;51.816;8.662;2022-12-28T03:44:36;3.97;;;1.70;;
21168;SDS011;10742;51.816;8.662;2022-12-28T03:48:01;3.83;;;1.63;;
21168;SDS011;10742;51.816;8.662;2022-12-28T03:51:24;6.00;;;1.90;;
21168;SDS011;10742;51.816;8.662;2022-12-28T03:54:47;5.73;;;1.53;;
21168;SDS011;10742;51.816;8.662;2022-12-28T03:58:11;5.30;;;1.67;;
21168;SDS011;10742;51.816;8.662;2022-12-28T04:01:32;6.57;;;1.80;;
21168;SDS011;10742;51.816;8.662;2022-12-28T04:04:55;4.67;;;1.77;;
21168;SDS011;10742;51.816;8.662;2022-12-28T04:08:16;2.73;;;1.30;;
21168;SDS011;10742;51.816;8.662;2022-12-28T04:11:38;2.47;;;1.40;;
21168;SDS011;10742;51.816;8.662;2022-12-28T04:15:03;2.57;;;1.50;;
21168;SDS011;10742;51.816;8.662;2022-12-28T04:18:06;3.43;;;1.60;;
21168;SDS011;10742;51.816;8.662;2022-12-28T04:21:10;2.33;;;1.17;;
21168;SDS011;10742;51.816;8.662;2022-12-28T04:24:15;2.77;;;1.53;;
21168;SDS011;10742;51.816;8.662;2022-12-28T04:27:18;4.10;;;1.57;;
21168;SDS011;10742;51.816;8.662;2022-12-28T04:30:21;1.33;;;1.23;;
21168;SDS011;10742;51.816;8.662;2022-12-28T04:33:23;2.60;;;1.47;;
21168;SDS011;10742;51.816;8.662;2022-12-28T04:36:26;3.10;;;1.50;;
21168;SDS011;10742;51.816;8.662;2022-12-28T04:39:29;3.17;;;1.33;;
21168;SDS011;10742;51.816;8.662;2022-12-28T04:42:32;2.17;;;1.33;;
21168;SDS011;10742;51.816;8.662;2022-12-28T04:45:34;5.30;;;1.60;;
21168;SDS011;10742;51.816;8.662;2022-12-28T04:48:37;2.63;;;1.50;;
21168;SDS011;10742;51.816;8.662;2022-12-28T04:51:39;2.53;;;1.60;;
21168;SDS011;10742;51.816;8.662;2022-12-28T04:54:42;4.17;;;1.50;;
21168;SDS011;10742;51.816;8.662;2022-12-28T04:57:44;3.83;;;1.50;;
21168;SDS011;10742;51.816;8.662;2022-12-28T05:00:48;2.97;;;1.60;;
21168;SDS011;10742;51.816;8.662;2022-12-28T05:03:51;4.17;;;1.30;;
21168;SDS011;10742;51.816;8.662;2022-12-28T05:06:56;2.10;;;1.23;;
21168;SDS011;10742;51.816;8.662;2022-12-28T05:09:59;2.23;;;1.43;;
21168;SDS011;10742;51.816;8.662;2022-12-28T05:13:01;3.07;;;1.30;;
21168;SDS011;10742;51.816;8.662;2022-12-28T05:16:08;2.00;;;1.43;;
21168;SDS011;10742;51.816;8.662;2022-12-28T05:19:12;4.00;;;1.33;;
21168;SDS011;10742;51.816;8.662;2022-12-28T05:22:15;2.73;;;1.60;;
21168;SDS011;10742;51.816;8.662;2022-12-28T05:25:18;6.47;;;2.03;;
21168;SDS011;10742;51.816;8.662;2022-12-28T05:28:21;1.90;;;1.20;;
21168;SDS011;10742;51.816;8.662;2022-12-28T05:31:24;2.60;;;1.13;;
21168;SDS011;10742;51.816;8.662;2022-12-28T05:34:27;2.67;;;1.40;;
21168;SDS011;10742;51.816;8.662;2022-12-28T05:37:29;1.30;;;1.10;;
21168;SDS011;10742;51.816;8.662;2022-12-28T05:40:32;1.23;;;1.13;;
21168;SDS011;10742;51.816;8.662;2022-12-28T05:43:34;2.53;;;1.20;;
21168;SDS011;10742;51.816;8.662;2022-12-28T05:46:37;2.27;;;1.13;;
21168;SDS011;10742;51.816;8.662;2022-12-28T05:49:40;2.97;;;1.13;;
21168;SDS011;10742;51.816;8.662;2022-12-28T05:52:42;5.40;;;1.30;;
21168;SDS011;10742;51.816;8.662;2022-12-28T05:55:45;3.17;;;1.37;;
21168;SDS011;10742;51.816;8.662;2022-12-28T05:58:51;3.23;;;1.20;;
21168;SDS011;10742;51.816;8.662;2022-12-28T06:01:55;2.13;;;1.20;;
21168;SDS011;10742;51.816;8.662;2022-12-28T06:04:58;1.70;;;1.10;;
21168;SDS011;10742;51.816;8.662;2022-12-28T06:08:01;4.27;;;1.60;;
21168;SDS011;10742;51.816;8.662;2022-12-28T06:11:05;3.23;;;1.70;;
21168;SDS011;10742;51.816;8.662;2022-12-28T06:14:09;3.40;;;1.37;;
21168;SDS011;10742;51.816;8.662;2022-12-28T06:17:12;4.30;;;1.20;;
21168;SDS011;10742;51.816;8.662;2022-12-28T06:20:14;1.90;;;1.10;;
21168;SDS011;10742;51.816;8.662;2022-12-28T06:23:17;6.57;;;1.20;;
21168;SDS011;10742;51.816;8.662;2022-12-28T06:26:20;1.47;;;1.23;;
21168;SDS011;10742;51.816;8.662;2022-12-28T06:29:23;1.93;;;1.30;;
21168;SDS011;10742;51.816;8.662;2022-12-28T06:32:26;1.67;;;1.30;;
21168;SDS011;10742;51.816;8.662;2022-12-28T06:35:29;2.40;;;1.30;;
21168;SDS011;10742;51.816;8.662;2022-12-28T06:38:31;1.40;;;1.23;;
21168;SDS011;10742;51.816;8.662;2022-12-28T06:41:36;1.87;;;1.20;;
21168;SDS011;10742;51.816;8.662;2022-12-28T06:44:39;2.00;;;1.10;;
21168;SDS011;10742;51.816;8.662;2022-12-28T06:47:45;4.40;;;1.60;;
21168;SDS011;10742;51.816;8.662;2022-12-28T06:50:54;2.63;;;1.30;;
21168;SDS011;10742;51.816;8.662;2022-12-28T06:53:57;2.70;;;1.30;;
21168;SDS011;10742;51.816;8.662;2022-12-28T06:57:00;1.73;;;1.07;;
21168;SDS011;10742;51.816;8.662;2022-12-28T07:00:03;1.63;;;1.33;;
21168;SDS011;10742;51.816;8.662;2022-12-28T07:03:07;2.77;;;1.27;;
21168;SDS011;10742;51.816;8.662;2022-12-28T07:06:10;3.73;;;1.20;;
21168;SDS011;10742;51.816;8.662;2022-12-28T07:09:14;3.13;;;1.20;;
21168;SDS011;10742;51.816;8.662;2022-12-28T07:12:17;1.33;;;0.83;;
21168;SDS011;10742;51.816;8.662;2022-12-28T07:15:20;1.00;;;1.00;;
21168;SDS011;10742;51.816;8.662;2022-12-28T07:18:22;2.00;;;1.10;;
21168;SDS011;10742;51.816;8.662;2022-12-28T07:21:30;1.43;;;1.10;;
21168;SDS011;10742;51.816;8.662;2022-12-28T07:24:34;2.43;;;1.23;;
21168;SDS011;10742;51.816;8.662;2022-12-28T07:27:37;3.30;;;1.30;;
21168;SDS011;10742;51.816;8.662;2022-12-28T07:30:40;4.73;;;1.40;;
21168;SDS011;10742;51.816;8.662;2022-12-28T07:33:43;3.13;;;1.50;;
21168;SDS011;10742;51.816;8.662;2022-12-28T07:36:47;1.33;;;1.10;;
21168;SDS011;10742;51.816;8.662;2022-12-28T07:39:50;1.30;;;1.00;;
21168;SDS011;10742;51.816;8.662;2022-12-28T07:42:52;1.80;;;0.90;;
21168;SDS011;10742;51.816;8.662;2022-12-28T07:45:59;1.53;;;0.90;;
21168;SDS011;10742;51.816;8.662;2022-12-28T07:49:06;1.37;;;0.90;;
21168;SDS011;10742;51.816;8.662;2022-12-28T07:52:08;1.80;;;0.83;;
21168;SDS011;10742;51.816;8.662;2022-12-28T07:55:11;1.53;;;0.83;;
21168;SDS011;10742;51.816;8.662;2022-12-28T07:58:14;1.00;;;0.90;;
21168;SDS011;10742;51.816;8.662;2022-12-28T08:01:18;0.83;;;0.83;;
21168;SDS011;10742;51.816;8.662;2022-12-28T08:04:22;2.17;;;0.90;;
21168;SDS011;10742;51.816;8.662;2022-12-28T08:07:24;0.90;;;0.90;;
21168;SDS011;10742;51.816;8.662;2022-12-28T08:10:27;2.57;;;1.20;;
21168;SDS011;10742;51.816;8.662;2022-12-28T08:13:30;3.00;;;1.10;;
21168;SDS011;10742;51.816;8.662;2022-12-28T08:16:38;1.10;;;0.90;;
21168;SDS011;10742;51.816;8.662;2022-12-28T08:19:42;2.00;;;1.00;;
21168;SDS011;10742;51.816;8.662;2022-12-28T08:22:45;8.33;;;1.37;;
21168;SDS011;10742;51.816;8.662;2022-12-28T08:25:47;0.90;;;0.90;;
21168;SDS011;10742;51.816;8.662;2022-12-28T08:28:51;2.40;;;1.00;;
21168;SDS011;10742;51.816;8.662;2022-12-28T08:31:55;2.60;;;1.43;;
21168;SDS011;10742;51.816;8.662;2022-12-28T08:34:59;1.60;;;0.90;;
21168;SDS011;10742;51.816;8.662;2022-12-28T08:38:02;1.87;;;1.40;;
21168;SDS011;10742;51.816;8.662;2022-12-28T08:41:06;1.57;;;1.20;;
21168;SDS011;10742;51.816;8.662;2022-12-28T08:44:10;2.70;;;1.73;;
21168;SDS011;10742;51.816;8.662;2022-12-28T08:47:12;4.47;;;1.40;;
21168;SDS011;10742;51.816;8.662;2022-12-28T08:50:15;1.30;;;0.90;;
21168;SDS011;10742;51.816;8.662;2022-12-28T08:53:20;1.37;;;0.97;;
21168;SDS011;10742;51.816;8.662;2022-12-28T08:56:27;5.20;;;1.17;;
21168;SDS011;10742;51.816;8.662;2022-12-28T08:59:35;0.67;;;0.67;;
21168;SDS011;10742;51.816;8.662;2022-12-28T09:02:38;1.33;;;0.70;;
21168;SDS011;10742;51.816;8.662;2022-12-28T09:05:40;1.50;;;0.87;;
21168;SDS011;10742;51.816;8.662;2022-12-28T09:08:44;0.97;;;0.90;;
21168;SDS011;10742;51.816;8.662;2022-12-28T09:12:03;1.20;;;1.00;;
21168;SDS011;10742;51.816;8.662;2022-12-28T09:15:09;1.13;;;1.00;;
21168;SDS011;10742;51.816;8.662;2022-12-28T09:18:11;1.17;;;1.00;;
21168;SDS011;10742;51.816;8.662;2022-12-28T09:21:15;1.13;;;1.03;;
21168;SDS011;10742;51.816;8.662;2022-12-28T09:24:20;1.27;;;0.80;;
21168;SDS011;10742;51.816;8.662;2022-12-28T09:27:23;0.77;;;0.70;;
21168;SDS011;10742;51.816;8.662;2022-12-28T09:30:26;1.13;;;1.00;;
21168;SDS011;10742;51.816;8.662;2022-12-28T09:33:29;3.07;;;1.10;;
21168;SDS011;10742;51.816;8.662;2022-12-28T09:37:06;1.30;;;0.90;;
21168;SDS011;10742;51.816;8.662;2022-12-28T09:40:09;1.20;;;0.87;;
21168;SDS011;10742;51.816;8.662;2022-12-28T09:43:14;2.93;;;1.00;;
21168;SDS011;10742;51.816;8.662;2022-12-28T09:46:18;0.83;;;0.80;;
21168;SDS011;10742;51.816;8.662;2022-12-28T09:49:26;2.50;;;0.80;;
21168;SDS011;10742;51.816;8.662;2022-12-28T09:52:37;2.00;;;0.63;;
21168;SDS011;10742;51.816;8.662;2022-12-28T09:59:31;1.00;;;0.90;;
21168;SDS011;10742;51.816;8.662;2022-12-28T10:02:35;0.80;;;0.80;;
21168;SDS011;10742;51.816;8.662;2022-12-28T10:05:41;0.70;;;0.70;;
21168;SDS011;10742;51.816;8.662;2022-12-28T10:08:44;0.83;;;0.77;;
21168;SDS011;10742;51.816;8.662;2022-12-28T10:11:50;3.07;;;1.00;;
21168;SDS011;10742;51.816;8.662;2022-12-28T10:14:53;0.77;;;0.70;;
21168;SDS011;10742;51.816;8.662;2022-12-28T10:17:57;2.20;;;0.90;;
21168;SDS011;10742;51.816;8.662;2022-12-28T10:21:00;1.47;;;1.03;;
21168;SDS011;10742;51.816;8.662;2022-12-28T10:24:04;1.30;;;0.70;;
21168;SDS011;10742;51.816;8.662;2022-12-28T10:27:29;2.00;;;0.70;;
21168;SDS011;10742;51.816;8.662;2022-12-28T10:30:32;0.67;;;0.60;;
21168;SDS011;10742;51.816;8.662;2022-12-28T10:33:49;1.87;;;0.80;;
21168;SDS011;10742;51.816;8.662;2022-12-28T10:36:54;0.60;;;0.60;;
21168;SDS011;10742;51.816;8.662;2022-12-28T10:40:05;0.97;;;0.70;;
21168;SDS011;10742;51.816;8.662;2022-12-28T10:43:19;0.93;;;0.70;;
21168;SDS011;10742;51.816;8.662;2022-12-28T10:46:22;0.83;;;0.80;;
21168;SDS011;10742;51.816;8.662;2022-12-28T10:49:26;1.23;;;1.13;;
21168;SDS011;10742;51.816;8.662;2022-12-28T10:52:32;0.53;;;0.53;;
21168;SDS011;10742;51.816;8.662;2022-12-28T10:55:37;1.20;;;0.83;;
21168;SDS011;10742;51.816;8.662;2022-12-28T10:58:44;0.80;;;0.80;;
21168;SDS011;10742;51.816;8.662;2022-12-28T11:01:48;0.60;;;0.60;;
21168;SDS011;10742;51.816;8.662;2022-12-28T11:04:53;2.90;;;1.10;;
21168;SDS011;10742;51.816;8.662;2022-12-28T11:08:03;2.87;;;0.50;;
21168;SDS011;10742;51.816;8.662;2022-12-28T11:11:15;1.10;;;0.70;;
21168;SDS011;10742;51.816;8.662;2022-12-28T11:17:26;0.80;;;0.80;;
21168;SDS011;10742;51.816;8.662;2022-12-28T11:20:35;0.53;;;0.53;;
21168;SDS011;10742;51.816;8.662;2022-12-28T11:23:40;0.83;;;0.83;;
21168;SDS011;10742;51.816;8.662;2022-12-28T11:26:46;1.30;;;1.00;;
21168;SDS011;10742;51.816;8.662;2022-12-28T11:29:51;1.63;;;0.63;;
21168;SDS011;10742;51.816;8.662;2022-12-28T11:32:58;0.90;;;0.90;;
21168;SDS011;10742;51.816;8.662;2022-12-28T11:36:02;0.70;;;0.70;;
21168;SDS011;10742;51.816;8.662;2022-12-28T11:45:50;1.03;;;0.90;;
21168;SDS011;10742;51.816;8.662;2022-12-28T11:55:34;1.70;;;1.20;;
21168;SDS011;10742;51.816;8.662;2022-12-28T11:58:42;0.70;;;0.70;;
21168;SDS011;10742;51.816;8.662;2022-12-28T12:08:39;1.67;;;0.77;;
21168;SDS011;10742;51.816;8.662;2022-12-28T12:11:42;0.80;;;0.80;;
21168;SDS011;10742;51.816;8.662;2022-12-28T12:14:49;1.50;;;1.00;;
21168;SDS011;10742;51.816;8.662;2022-12-28T12:18:12;2.33;;;1.20;;
21168;SDS011;10742;51.816;8.662;2022-12-28T12:24:41;2.40;;;1.00;;
21168;SDS011;10742;51.816;8.662;2022-12-28T12:27:52;1.20;;;0.87;;
21168;SDS011;10742;51.816;8.662;2022-12-28T12:30:58;1.00;;;1.00;;
21168;SDS011;10742;51.816;8.662;2022-12-28T12:34:09;0.97;;;0.80;;
21168;SDS011;10742;51.816;8.662;2022-12-28T12:37:34;2.30;;;1.47;;
21168;SDS011;10742;51.816;8.662;2022-12-28T12:47:31;0.93;;;0.90;;
21168;SDS011;10742;51.816;8.662;2022-12-28T13:04:24;1.10;;;1.00;;
21168;SDS011;10742;51.816;8.662;2022-12-28T13:07:30;0.80;;;0.80;;
21168;SDS011;10742;51.816;8.662;2022-12-28T13:10:36;2.93;;;1.10;;
21168;SDS011;10742;51.816;8.662;2022-12-28T13:13:46;1.30;;;1.10;;
21168;SDS011;10742;51.816;8.662;2022-12-28T13:16:52;1.10;;;1.00;;
21168;SDS011;10742;51.816;8.662;2022-12-28T13:20:09;2.90;;;0.90;;
21168;SDS011;10742;51.816;8.662;2022-12-28T13:23:20;1.13;;;0.87;;
21168;SDS011;10742;51.816;8.662;2022-12-28T13:26:26;2.33;;;1.20;;
21168;SDS011;10742;51.816;8.662;2022-12-28T13:29:39;2.90;;;1.17;;
21168;SDS011;10742;51.816;8.662;2022-12-28T13:32:47;3.60;;;1.30;;
21168;SDS011;10742;51.816;8.662;2022-12-28T13:36:14;3.07;;;1.37;;
21168;SDS011;10742;51.816;8.662;2022-12-28T13:39:20;51.80;;;25.70;;
21168;SDS011;10742;51.816;8.662;2022-12-28T13:42:34;102.73;;;51.97;;
21168;SDS011;10742;51.816;8.662;2022-12-28T13:46:01;25.87;;;12.80;;
21168;SDS011;10742;51.816;8.662;2022-12-28T13:49:10;9.23;;;4.60;;
21168;SDS011;10742;51.816;8.662;2022-12-28T13:52:15;5.90;;;3.60;;
21168;SDS011;10742;51.816;8.662;2022-12-28T13:55:23;7.40;;;3.10;;
21168;SDS011;10742;51.816;8.662;2022-12-28T13:58:38;3.03;;;1.83;;
21168;SDS011;10742;51.816;8.662;2022-12-28T14:01:50;33.73;;;14.47;;
21168;SDS011;10742;51.816;8.662;2022-12-28T14:04:54;56.00;;;18.67;;
21168;SDS011;10742;51.816;8.662;2022-12-28T14:07:57;61.13;;;23.87;;
21168;SDS011;10742;51.816;8.662;2022-12-28T14:11:00;36.00;;;13.47;;
21168;SDS011;10742;51.816;8.662;2022-12-28T14:14:04;54.23;;;18.27;;
21168;SDS011;10742;51.816;8.662;2022-12-28T14:17:07;14.57;;;4.70;;
21168;SDS011;10742;51.816;8.662;2022-12-28T14:20:11;30.43;;;11.27;;
21168;SDS011;10742;51.816;8.662;2022-12-28T14:23:33;14.67;;;4.83;;
21168;SDS011;10742;51.816;8.662;2022-12-28T14:26:38;9.67;;;3.40;;
21168;SDS011;10742;51.816;8.662;2022-12-28T14:29:47;6.47;;;2.80;;
21168;SDS011;10742;51.816;8.662;2022-12-28T14:32:50;4.70;;;2.57;;
21168;SDS011;10742;51.816;8.662;2022-12-28T14:36:00;5.33;;;1.80;;
21168;SDS011;10742;51.816;8.662;2022-12-28T14:39:05;6.63;;;2.87;;
21168;SDS011;10742;51.816;8.662;2022-12-28T14:42:19;4.30;;;2.30;;
21168;SDS011;10742;51.816;8.662;2022-12-28T14:45:41;6.23;;;3.20;;
21168;SDS011;10742;51.816;8.662;2022-12-28T14:48:47;6.13;;;2.40;;
21168;SDS011;10742;51.816;8.662;2022-12-28T14:51:50;5.00;;;2.20;;
21168;SDS011;10742;51.816;8.662;2022-12-28T14:54:53;7.87;;;2.30;;
21168;SDS011;10742;51.816;8.662;2022-12-28T14:57:57;5.93;;;1.70;;
21168;SDS011;10742;51.816;8.662;2022-12-28T15:01:04;4.43;;;1.80;;
21168;SDS011;10742;51.816;8.662;2022-12-28T15:07:38;3.20;;;2.00;;
21168;SDS011;10742;51.816;8.662;2022-12-28T15:10:42;3.03;;;1.50;;
21168;SDS011;10742;51.816;8.662;2022-12-28T15:13:49;4.90;;;1.53;;
21168;SDS011;10742;51.816;8.662;2022-12-28T15:16:52;23.60;;;8.27;;
21168;SDS011;10742;51.816;8.662;2022-12-28T15:19:54;12.20;;;5.67;;
21168;SDS011;10742;51.816;8.662;2022-12-28T15:22:57;8.70;;;3.30;;
21168;SDS011;10742;51.816;8.662;2022-12-28T15:26:04;6.23;;;2.77;;
21168;SDS011;10742;51.816;8.662;2022-12-28T15:29:11;2.70;;;1.80;;
21168;SDS011;10742;51.816;8.662;2022-12-28T15:32:14;4.53;;;2.37;;
21168;SDS011;10742;51.816;8.662;2022-12-28T15:35:16;5.37;;;2.93;;
21168;SDS011;10742;51.816;8.662;2022-12-28T15:38:20;12.17;;;3.53;;
21168;SDS011;10742;51.816;8.662;2022-12-28T15:41:22;11.30;;;4.00;;
21168;SDS011;10742;51.816;8.662;2022-12-28T15:44:43;9.43;;;3.50;;
21168;SDS011;10742;51.816;8.662;2022-12-28T15:47:47;3.43;;;2.03;;
21168;SDS011;10742;51.816;8.662;2022-12-28T15:50:50;8.40;;;3.20;;
21168;SDS011;10742;51.816;8.662;2022-12-28T15:53:52;9.77;;;3.50;;
21168;SDS011;10742;51.816;8.662;2022-12-28T15:56:55;4.50;;;2.30;;
21168;SDS011;10742;51.816;8.662;2022-12-28T15:59:58;4.37;;;2.70;;
21168;SDS011;10742;51.816;8.662;2022-12-28T16:03:02;5.47;;;2.30;;
21168;SDS011;10742;51.816;8.662;2022-12-28T16:06:05;5.43;;;2.30;;
21168;SDS011;10742;51.816;8.662;2022-12-28T16:09:08;4.70;;;2.67;;
21168;SDS011;10742;51.816;8.662;2022-12-28T16:12:12;3.73;;;2.10;;
21168;SDS011;10742;51.816;8.662;2022-12-28T16:15:18;3.77;;;2.10;;
21168;SDS011;10742;51.816;8.662;2022-12-28T16:18:21;8.93;;;3.60;;
21168;SDS011;10742;51.816;8.662;2022-12-28T16:21:24;24.67;;;8.33;;
21168;SDS011;10742;51.816;8.662;2022-12-28T16:24:28;19.83;;;7.67;;
21168;SDS011;10742;51.816;8.662;2022-12-28T16:27:31;21.17;;;7.47;;
21168;SDS011;10742;51.816;8.662;2022-12-28T16:30:45;20.87;;;6.77;;
21168;SDS011;10742;51.816;8.662;2022-12-28T16:33:56;17.63;;;6.07;;
21168;SDS011;10742;51.816;8.662;2022-12-28T16:37:00;29.90;;;12.53;;
21168;SDS011;10742;51.816;8.662;2022-12-28T16:40:03;16.00;;;6.00;;
21168;SDS011;10742;51.816;8.662;2022-12-28T16:43:07;18.83;;;7.87;;
21168;SDS011;10742;51.816;8.662;2022-12-28T16:46:11;12.80;;;5.87;;
21168;SDS011;10742;51.816;8.662;2022-12-28T16:49:14;10.33;;;3.87;;
21168;SDS011;10742;51.816;8.662;2022-12-28T16:52:17;5.33;;;3.00;;
21168;SDS011;10742;51.816;8.662;2022-12-28T16:55:19;5.97;;;3.13;;
21168;SDS011;10742;51.816;8.662;2022-12-28T16:58:22;7.17;;;2.50;;
21168;SDS011;10742;51.816;8.662;2022-12-28T17:01:24;3.20;;;1.80;;
21168;SDS011;10742;51.816;8.662;2022-12-28T17:04:27;3.23;;;1.80;;
21168;SDS011;10742;51.816;8.662;2022-12-28T17:07:30;5.23;;;2.43;;
21168;SDS011;10742;51.816;8.662;2022-12-28T17:10:33;5.37;;;1.90;;
21168;SDS011;10742;51.816;8.662;2022-12-28T17:13:36;3.33;;;1.57;;
21168;SDS011;10742;51.816;8.662;2022-12-28T17:16:39;4.63;;;1.80;;
21168;SDS011;10742;51.816;8.662;2022-12-28T17:19:42;3.83;;;1.67;;
21168;SDS011;10742;51.816;8.662;2022-12-28T17:22:44;5.97;;;1.47;;
21168;SDS011;10742;51.816;8.662;2022-12-28T17:25:49;2.27;;;1.30;;
21168;SDS011;10742;51.816;8.662;2022-12-28T17:28:53;5.77;;;1.70;;
21168;SDS011;10742;51.816;8.662;2022-12-28T17:31:56;6.80;;;1.70;;
21168;SDS011;10742;51.816;8.662;2022-12-28T17:34:59;6.50;;;1.70;;
21168;SDS011;10742;51.816;8.662;2022-12-28T17:38:01;3.73;;;1.53;;
21168;SDS011;10742;51.816;8.662;2022-12-28T17:41:06;4.97;;;1.67;;
21168;SDS011;10742;51.816;8.662;2022-12-28T17:44:13;2.67;;;1.60;;
21168;SDS011;10742;51.816;8.662;2022-12-28T17:47:16;3.17;;;1.40;;
21168;SDS011;10742;51.816;8.662;2022-12-28T17:50:19;2.73;;;1.40;;
21168;SDS011;10742;51.816;8.662;2022-12-28T17:53:24;2.50;;;1.50;;
21168;SDS011;10742;51.816;8.662;2022-12-28T17:56:26;4.43;;;1.33;;
21168;SDS011;10742;51.816;8.662;2022-12-28T17:59:29;6.10;;;2.60;;
21168;SDS011;10742;51.816;8.662;2022-12-28T18:02:31;6.97;;;2.60;;
21168;SDS011;10742;51.816;8.662;2022-12-28T18:05:35;4.70;;;2.30;;
21168;SDS011;10742;51.816;8.662;2022-12-28T18:08:38;6.80;;;1.93;;
21168;SDS011;10742;51.816;8.662;2022-12-28T18:11:41;3.20;;;1.73;;
21168;SDS011;10742;51.816;8.662;2022-12-28T18:14:43;3.33;;;1.80;;
21168;SDS011;10742;51.816;8.662;2022-12-28T18:17:46;4.63;;;1.30;;
21168;SDS011;10742;51.816;8.662;2022-12-28T18:20:59;2.70;;;1.53;;
21168;SDS011;10742;51.816;8.662;2022-12-28T18:24:04;2.83;;;1.60;;
21168;SDS011;10742;51.816;8.662;2022-12-28T18:27:08;2.13;;;1.33;;
21168;SDS011;10742;51.816;8.662;2022-12-28T18:30:11;3.20;;;1.47;;
21168;SDS011;10742;51.816;8.662;2022-12-28T18:33:14;5.67;;;1.90;;
21168;SDS011;10742;51.816;8.662;2022-12-28T18:36:16;3.77;;;2.10;;
21168;SDS011;10742;51.816;8.662;2022-12-28T18:39:19;6.20;;;2.23;;
21168;SDS011;10742;51.816;8.662;2022-12-28T18:42:21;4.00;;;2.37;;
21168;SDS011;10742;51.816;8.662;2022-12-28T18:45:25;8.77;;;2.13;;
21168;SDS011;10742;51.816;8.662;2022-12-28T18:48:29;4.00;;;1.47;;
21168;SDS011;10742;51.816;8.662;2022-12-28T18:51:35;4.93;;;1.40;;
21168;SDS011;10742;51.816;8.662;2022-12-28T18:54:37;4.13;;;1.53;;
21168;SDS011;10742;51.816;8.662;2022-12-28T18:57:40;5.03;;;1.60;;
21168;SDS011;10742;51.816;8.662;2022-12-28T19:00:43;3.33;;;1.40;;
21168;SDS011;10742;51.816;8.662;2022-12-28T19:03:45;4.60;;;1.70;;
21168;SDS011;10742;51.816;8.662;2022-12-28T19:06:48;3.77;;;1.90;;
21168;SDS011;10742;51.816;8.662;2022-12-28T19:10:09;2.93;;;1.80;;
21168;SDS011;10742;51.816;8.662;2022-12-28T19:13:13;3.60;;;1.90;;
21168;SDS011;10742;51.816;8.662;2022-12-28T19:16:16;4.33;;;1.93;;
21168;SDS011;10742;51.816;8.662;2022-12-28T19:19:23;4.67;;;1.80;;
21168;SDS011;10742;51.816;8.662;2022-12-28T19:22:25;2.63;;;2.00;;
21168;SDS011;10742;51.816;8.662;2022-12-28T19:25:27;2.03;;;1.50;;
21168;SDS011;10742;51.816;8.662;2022-12-28T19:28:31;3.37;;;1.60;;
21168;SDS011;10742;51.816;8.662;2022-12-28T19:31:34;3.90;;;1.60;;
21168;SDS011;10742;51.816;8.662;2022-12-28T19:34:36;3.23;;;1.43;;
21168;SDS011;10742;51.816;8.662;2022-12-28T19:37:40;4.40;;;1.83;;
21168;SDS011;10742;51.816;8.662;2022-12-28T19:40:44;3.63;;;1.80;;
21168;SDS011;10742;51.816;8.662;2022-12-28T19:43:47;3.13;;;1.90;;
21168;SDS011;10742;51.816;8.662;2022-12-28T19:46:49;3.43;;;1.80;;
21168;SDS011;10742;51.816;8.662;2022-12-28T19:49:52;7.17;;;2.83;;
21168;SDS011;10742;51.816;8.662;2022-12-28T19:52:55;5.90;;;1.83;;
21168;SDS011;10742;51.816;8.662;2022-12-28T19:56:03;3.27;;;1.70;;
21168;SDS011;10742;51.816;8.662;2022-12-28T19:59:06;3.47;;;1.80;;
21168;SDS011;10742;51.816;8.662;2022-12-28T20:02:09;4.03;;;1.40;;
21168;SDS011;10742;51.816;8.662;2022-12-28T20:05:12;4.27;;;1.67;;
21168;SDS011;10742;51.816;8.662;2022-12-28T20:08:15;3.97;;;1.70;;